Time;durP1;ratioP1;P1;durP2;ratioP2;P2;SDS_P1;SDS_P2;PMS_P1;PMS_P2;Temp;Humidity;BMP_temperature;BMP_pressure;BME280_temperature;BME280_humidity;BME280_pressure;Samples;Min_cycle;Max_cycle;Signal;HPM_P1;HPM_P2
2023/12/14 00:00:39;;;;;;;21.07;14.63;;;8.90;82.80;;;;;;4887714;29;20885;-76
2023/12/14 00:03:07;;;;;;;22.43;13.83;;;8.90;82.80;;;;;;4906790;29;20457;-76
2023/12/14 00:05:36;;;;;;;18.73;13.50;;;8.90;82.80;;;;;;4891571;29;20462;-76
2023/12/14 00:08:04;;;;;;;22.83;15.27;;;8.90;82.80;;;;;;4891898;29;20466;-76
2023/12/14 00:10:35;;;;;;;21.67;14.43;;;8.90;82.90;;;;;;4891332;29;20460;-76
2023/12/14 00:13:06;;;;;;;22.50;14.47;;;8.90;82.90;;;;;;4889851;29;20486;-76
2023/12/14 00:15:35;;;;;;;31.93;15.73;;;8.90;82.90;;;;;;4894528;29;20942;-76
2023/12/14 00:18:03;;;;;;;21.30;14.50;;;8.90;82.90;;;;;;4889504;29;20463;-76
2023/12/14 00:20:32;;;;;;;24.10;16.00;;;8.90;82.70;;;;;;4888481;29;20466;-77
2023/12/14 00:23:01;;;;;;;28.80;16.13;;;8.80;82.80;;;;;;4892978;29;20468;-77
2023/12/14 00:25:32;;;;;;;21.27;14.60;;;8.80;82.70;;;;;;4891861;29;20567;-76
2023/12/14 00:28:02;;;;;;;22.70;15.07;;;8.80;82.80;;;;;;4893911;29;20919;-76
2023/12/14 00:30:31;;;;;;;22.63;15.17;;;8.70;82.80;;;;;;4888331;29;20471;-76
2023/12/14 00:32:59;;;;;;;23.13;15.77;;;8.70;82.70;;;;;;4889414;29;20458;-76
2023/12/14 00:35:30;;;;;;;22.10;14.10;;;8.70;82.70;;;;;;4889261;29;20473;-76
2023/12/14 00:37:59;;;;;;;21.33;13.97;;;8.70;82.70;;;;;;4886715;29;20468;-77
2023/12/14 00:40:28;;;;;;;20.30;13.40;;;8.60;82.80;;;;;;4890688;29;20954;-77
2023/12/14 00:42:57;;;;;;;19.93;13.83;;;8.60;82.80;;;;;;4890335;29;20940;-77
2023/12/14 00:45:29;;;;;;;24.17;15.40;;;8.60;82.70;;;;;;4886167;29;20470;-77
2023/12/14 00:47:59;;;;;;;20.93;14.30;;;8.50;82.50;;;;;;4889782;29;20897;-76
2023/12/14 00:50:28;;;;;;;20.50;13.30;;;8.50;82.60;;;;;;4891986;29;20449;-77
2023/12/14 00:52:57;;;;;;;24.80;13.53;;;8.50;82.60;;;;;;4891473;29;20484;-76
2023/12/14 00:55:26;;;;;;;18.77;11.80;;;8.50;82.60;;;;;;4892426;29;20485;-76
2023/12/14 00:57:55;;;;;;;19.43;11.80;;;8.40;82.60;;;;;;4894994;29;20462;-76
2023/12/14 01:00:25;;;;;;;16.10;10.77;;;8.40;82.50;;;;;;4886986;29;20552;-76
2023/12/14 01:02:58;;;;;;;15.70;10.63;;;8.40;82.60;;;;;;4887901;29;20471;-76
2023/12/14 01:05:27;;;;;;;17.13;9.40;;;8.40;82.70;;;;;;4889118;29;20468;-76
2023/12/14 01:07:56;;;;;;;13.50;9.30;;;8.40;82.60;;;;;;4890705;29;20529;-77
2023/12/14 01:10:24;;;;;;;14.87;10.40;;;8.40;82.70;;;;;;4897328;29;21112;-76
2023/12/14 01:12:59;;;;;;;19.40;10.27;;;8.40;82.70;;;;;;4892455;29;20473;-75
2023/12/14 01:15:30;;;;;;;17.00;10.03;;;8.40;82.60;;;;;;4892173;29;20505;-76
2023/12/14 01:18:02;;;;;;;15.50;10.03;;;8.30;82.60;;;;;;4892533;29;20473;-76
2023/12/14 01:20:31;;;;;;;16.10;10.53;;;8.30;82.50;;;;;;4894472;29;20489;-76
2023/12/14 01:22:59;;;;;;;14.00;9.80;;;8.30;82.40;;;;;;4894096;29;20933;-76
2023/12/14 01:25:33;;;;;;;22.23;11.30;;;8.20;82.30;;;;;;4892873;29;20493;-76
2023/12/14 01:28:01;;;;;;;25.20;11.80;;;8.20;82.40;;;;;;4892534;29;20468;-76
2023/12/14 01:30:31;;;;;;;16.87;11.40;;;8.20;82.30;;;;;;4890638;29;20465;-76
2023/12/14 01:33:00;;;;;;;14.57;9.70;;;8.10;82.30;;;;;;4894583;29;20951;-76
2023/12/14 01:35:29;;;;;;;14.93;10.33;;;8.10;82.30;;;;;;4892645;29;20481;-75
2023/12/14 01:37:58;;;;;;;16.17;10.67;;;8.10;82.40;;;;;;4892726;29;20555;-75
2023/12/14 01:40:27;;;;;;;16.20;10.43;;;8.10;82.40;;;;;;4892848;29;20466;-75
2023/12/14 01:43:08;;;;;;;16.90;10.17;;;8.10;82.40;;;;;;4893053;29;20518;-75
2023/12/14 01:45:37;;;;;;;20.67;10.53;;;8.10;82.40;;;;;;4892797;29;20456;-75
2023/12/14 01:48:07;;;;;;;16.63;11.30;;;8.00;82.40;;;;;;4893193;29;20479;-76
2023/12/14 01:50:36;;;;;;;14.90;10.20;;;8.00;82.40;;;;;;4894018;29;20517;-77
2023/12/14 01:53:05;;;;;;;16.83;10.23;;;8.00;82.40;;;;;;4894626;29;20466;-77
2023/12/14 01:55:34;;;;;;;21.00;12.43;;;8.00;82.30;;;;;;4891809;29;20521;-76
2023/12/14 01:58:03;;;;;;;16.80;12.50;;;7.90;82.30;;;;;;4891889;29;21086;-76
2023/12/14 02:00:42;;;;;;;24.90;11.97;;;7.90;82.30;;;;;;4907565;29;20233;-76
2023/12/14 02:03:15;;;;;;;16.90;11.57;;;7.90;82.30;;;;;;4893352;29;20545;-76
2023/12/14 02:05:46;;;;;;;16.67;10.50;;;7.90;82.30;;;;;;4893057;29;20789;-76
2023/12/14 02:08:16;;;;;;;13.67;9.60;;;7.90;82.20;;;;;;4892719;29;20453;-76
2023/12/14 02:10:44;;;;;;;13.90;9.57;;;7.90;82.20;;;;;;4889138;29;20470;-76
2023/12/14 02:13:13;;;;;;;13.93;9.40;;;7.90;82.30;;;;;;4893015;29;20718;-77
2023/12/14 02:15:42;;;;;;;19.07;10.43;;;7.90;82.20;;;;;;4892068;29;20473;-76
2023/12/14 02:18:12;;;;;;;25.40;13.37;;;7.90;82.10;;;;;;4891914;29;20545;-76
2023/12/14 02:20:42;;;;;;;34.57;15.90;;;7.80;81.90;;;;;;4891869;29;20457;-76
2023/12/14 02:23:14;;;;;;;60.35;27.55;;;7.70;81.70;;;;;;4892601;29;20800;-76
2023/12/14 02:25:43;;;;;;;55.13;26.40;;;7.60;81.70;;;;;;4889954;29;20206;-76
2023/12/14 02:28:12;;;;;;;56.75;26.80;;;7.60;81.70;;;;;;4892929;29;20269;-76
2023/12/14 02:30:41;;;;;;;54.73;27.10;;;7.50;81.80;;;;;;4892788;29;20644;-76
2023/12/14 02:33:10;;;;;;;37.17;18.83;;;7.50;81.80;;;;;;4892990;29;20465;-76
2023/12/14 02:35:41;;;;;;;29.27;15.02;;;7.40;81.90;;;;;;4891793;29;21029;-76
2023/12/14 02:38:12;;;;;;;26.00;14.00;;;7.40;82.00;;;;;;4892627;29;20193;-76
2023/12/14 02:40:41;;;;;;;22.27;12.77;;;7.40;82.00;;;;;;4890108;29;20280;-76
2023/12/14 02:43:10;;;;;;;18.10;11.73;;;7.40;82.00;;;;;;4892702;29;20232;-75
2023/12/14 02:45:39;;;;;;;20.02;10.57;;;7.40;82.10;;;;;;4890824;29;20211;-76
2023/12/14 02:48:08;;;;;;;23.38;13.75;;;7.40;82.10;;;;;;4902811;29;20232;-77
2023/12/14 02:50:39;;;;;;;22.55;13.27;;;7.40;82.00;;;;;;4889538;29;20301;-76
2023/12/14 02:53:08;;;;;;;27.40;13.40;;;7.40;81.90;;;;;;4892287;29;20214;-76
2023/12/14 02:55:38;;;;;;;21.40;12.27;;;7.30;81.90;;;;;;4892466;29;20486;-76
2023/12/14 02:58:07;;;;;;;17.75;10.45;;;7.30;81.90;;;;;;4891031;29;20339;-76
2023/12/14 03:00:36;;;;;;;20.10;11.57;;;7.30;81.90;;;;;;4890336;29;20241;-76
2023/12/14 03:03:05;;;;;;;21.00;12.23;;;7.30;81.90;;;;;;4892630;29;20636;-76
2023/12/14 03:05:34;;;;;;;16.42;10.65;;;7.30;81.90;;;;;;4898162;29;20201;-76
2023/12/14 03:08:03;;;;;;;19.65;10.68;;;7.30;82.00;;;;;;4909406;29;20558;-76
2023/12/14 03:10:32;;;;;;;22.45;11.88;;;7.30;82.00;;;;;;4890741;29;20227;-76
2023/12/14 03:13:05;;;;;;;16.17;9.18;;;7.30;82.20;;;;;;4893889;29;20214;-75
2023/12/14 03:15:33;;;;;;;17.90;10.10;;;7.40;82.30;;;;;;4888236;29;20228;-75
2023/12/14 03:18:05;;;;;;;15.77;10.15;;;7.40;82.20;;;;;;4899949;29;20210;-76
2023/12/14 03:20:34;;;;;;;14.27;9.20;;;7.40;82.30;;;;;;4889641;29;20218;-76
2023/12/14 03:23:03;;;;;;;12.77;8.27;;;7.50;82.20;;;;;;4890295;29;20229;-76
2023/12/14 03:25:41;;;;;;;11.90;8.70;;;7.50;82.30;;;;;;4904206;29;20202;-76
2023/12/14 03:28:11;;;;;;;14.33;7.70;;;7.50;82.20;;;;;;4890943;29;20870;-75
2023/12/14 03:30:39;;;;;;;13.20;8.30;;;7.50;82.20;;;;;;4894851;29;20481;-76
2023/12/14 03:33:08;;;;;;;13.60;9.13;;;7.60;82.20;;;;;;4891993;29;21140;-74
2023/12/14 03:35:37;;;;;;;12.60;8.02;;;7.60;82.20;;;;;;4908742;29;20268;-74
2023/12/14 03:38:06;;;;;;;17.03;8.80;;;7.60;82.30;;;;;;4889470;29;20305;-74
2023/12/14 03:40:35;;;;;;;13.57;8.48;;;7.60;82.40;;;;;;4890655;29;20496;-74
2023/12/14 03:43:04;;;;;;;14.50;9.37;;;7.70;82.30;;;;;;4892044;29;20265;-74
2023/12/14 03:45:34;;;;;;;15.65;9.82;;;7.70;82.30;;;;;;4888484;29;20473;-74
2023/12/14 03:48:05;;;;;;;16.57;9.33;;;7.70;82.40;;;;;;4891134;29;20546;-74
2023/12/14 03:50:34;;;;;;;15.37;8.37;;;7.80;82.40;;;;;;4892936;29;20473;-74
2023/12/14 03:53:02;;;;;;;16.30;9.90;;;7.80;82.50;;;;;;4889852;29;20477;-76
2023/12/14 03:55:32;;;;;;;12.80;8.50;;;7.80;82.50;;;;;;4892417;29;20765;-76
2023/12/14 03:58:02;;;;;;;16.00;9.57;;;7.90;82.60;;;;;;4888406;29;20936;-76
2023/12/14 04:00:30;;;;;;;14.77;9.47;;;7.90;82.60;;;;;;4890985;29;20533;-77
2023/12/14 04:03:00;;;;;;;15.53;9.80;;;7.90;82.60;;;;;;4906729;29;20469;-77
2023/12/14 04:05:32;;;;;;;21.27;10.37;;;8.00;82.70;;;;;;4891842;29;21239;-77
2023/12/14 04:08:01;;;;;;;20.07;10.70;;;8.00;82.80;;;;;;4890274;29;20461;-77
2023/12/14 04:10:30;;;;;;;15.23;9.67;;;8.00;82.80;;;;;;4892368;29;20541;-76
2023/12/14 04:12:59;;;;;;;15.50;9.77;;;8.00;82.80;;;;;;4889146;29;20520;-76
2023/12/14 04:15:28;;;;;;;15.10;8.53;;;8.00;82.80;;;;;;4889467;29;20491;-76
2023/12/14 04:18:00;;;;;;;14.57;9.43;;;8.00;82.70;;;;;;4891007;29;20459;-75
2023/12/14 04:20:29;;;;;;;13.33;9.10;;;8.00;82.70;;;;;;4891572;29;20477;-75
2023/12/14 04:22:58;;;;;;;15.03;8.70;;;8.00;82.60;;;;;;4890810;29;20990;-75
2023/12/14 04:25:27;;;;;;;19.73;8.90;;;8.00;82.60;;;;;;4905307;29;21378;-75
2023/12/14 04:27:57;;;;;;;16.77;9.73;;;8.00;82.60;;;;;;4892616;29;20462;-75
2023/12/14 04:30:25;;;;;;;15.77;10.23;;;7.90;82.60;;;;;;4890428;29;20992;-76
2023/12/14 04:32:54;;;;;;;18.38;9.70;;;7.90;82.60;;;;;;4891755;29;20482;-76
2023/12/14 04:35:25;;;;;;;16.37;10.03;;;7.90;82.80;;;;;;4889481;29;20233;-76
2023/12/14 04:37:54;;;;;;;16.52;9.93;;;8.00;82.90;;;;;;4892345;29;21069;-78
2023/12/14 04:40:23;;;;;;;16.00;10.17;;;8.00;82.90;;;;;;4896538;29;20293;-77
2023/12/14 04:42:51;;;;;;;18.37;9.50;;;8.00;82.90;;;;;;4893904;29;20475;-77
2023/12/14 04:45:20;;;;;;;25.20;11.57;;;8.10;82.90;;;;;;4895066;29;20458;-76
2023/12/14 04:47:49;;;;;;;20.83;11.83;;;8.10;83.00;;;;;;4896043;29;20457;-75
2023/12/14 04:50:18;;;;;;;17.63;11.50;;;8.10;82.90;;;;;;4895868;29;20568;-76
2023/12/14 04:52:56;;;;;;;23.27;11.13;;;8.10;83.00;;;;;;4894713;29;20473;-76
2023/12/14 04:55:24;;;;;;;15.50;10.65;;;8.10;83.10;;;;;;4894606;29;20599;-76
2023/12/14 04:57:54;;;;;;;35.47;11.50;;;8.20;83.10;;;;;;4891783;29;20636;-76
2023/12/14 05:00:22;;;;;;;16.90;11.20;;;8.20;83.10;;;;;;4895212;29;20221;-76
2023/12/14 05:02:52;;;;;;;16.87;10.50;;;8.20;83.00;;;;;;4894057;29;20552;-75
2023/12/14 05:05:24;;;;;;;17.88;10.95;;;8.20;83.10;;;;;;4887294;29;20466;-75
2023/12/14 05:07:55;;;;;;;19.93;10.43;;;8.20;83.20;;;;;;4895131;29;20206;-75
2023/12/14 05:10:23;;;;;;;19.53;11.03;;;8.30;83.20;;;;;;4890410;29;20479;-76
2023/12/14 05:12:52;;;;;;;18.00;11.43;;;8.30;83.20;;;;;;4892294;29;20559;-76
2023/12/14 05:15:21;;;;;;;17.90;11.23;;;8.30;83.20;;;;;;4890966;29;20457;-76
2023/12/14 05:17:50;;;;;;;22.83;11.93;;;8.40;83.30;;;;;;4893482;29;20529;-76
2023/12/14 05:20:20;;;;;;;23.60;12.23;;;8.40;83.20;;;;;;4893978;29;20615;-76
2023/12/14 05:22:49;;;;;;;20.17;11.97;;;8.40;83.30;;;;;;4894652;29;20457;-76
2023/12/14 05:25:20;;;;;;;22.33;12.47;;;8.40;83.30;;;;;;4907087;29;20522;-76
2023/12/14 05:27:48;;;;;;;28.70;12.90;;;8.40;83.40;;;;;;4895610;29;20555;-76
2023/12/14 05:30:18;;;;;;;25.73;13.40;;;8.50;83.50;;;;;;4907275;29;20472;-76
2023/12/14 05:32:49;;;;;;;25.43;12.23;;;8.50;83.50;;;;;;4898991;29;20879;-76
2023/12/14 05:35:18;;;;;;;24.90;13.00;;;8.50;83.50;;;;;;4894925;29;20529;-76
2023/12/14 05:37:47;;;;;;;22.70;12.07;;;8.50;83.60;;;;;;4891219;29;20481;-76
2023/12/14 05:40:17;;;;;;;19.90;11.83;;;8.50;83.60;;;;;;4891535;29;20498;-76
2023/12/14 05:42:51;;;;;;;18.97;12.13;;;8.50;83.60;;;;;;4899792;29;20814;-76
2023/12/14 05:45:20;;;;;;;19.70;10.73;;;8.60;83.60;;;;;;4908528;29;20489;-76
2023/12/14 05:47:48;;;;;;;21.77;11.87;;;8.60;83.60;;;;;;4893205;29;20458;-76
2023/12/14 05:50:17;;;;;;;22.97;12.03;;;8.60;83.60;;;;;;4892672;29;20457;-75
2023/12/14 05:52:46;;;;;;;21.60;12.10;;;8.60;83.60;;;;;;4890829;29;20844;-76
2023/12/14 05:55:14;;;;;;;23.13;11.80;;;8.50;83.50;;;;;;4888327;29;20970;-76
2023/12/14 05:57:42;;;;;;;18.63;11.30;;;8.50;83.60;;;;;;4893435;29;20588;-76
2023/12/14 06:00:12;;;;;;;19.47;11.60;;;8.50;83.60;;;;;;4892376;29;21056;-76
2023/12/14 06:02:40;;;;;;;23.30;12.33;;;8.50;83.60;;;;;;4891590;29;20461;-76
2023/12/14 06:05:09;;;;;;;19.73;11.97;;;8.50;83.60;;;;;;4890599;29;21488;-76
2023/12/14 06:07:38;;;;;;;21.47;13.50;;;8.50;83.60;;;;;;4889039;29;20557;-76
2023/12/14 06:10:07;;;;;;;25.00;12.60;;;8.50;83.60;;;;;;4887819;29;20788;-76
2023/12/14 06:12:35;;;;;;;25.80;12.77;;;8.50;83.60;;;;;;4894433;29;20904;-76
2023/12/14 06:15:04;;;;;;;24.70;13.80;;;8.50;83.70;;;;;;4891650;29;20923;-76
2023/12/14 06:17:33;;;;;;;24.00;13.47;;;8.40;83.70;;;;;;4892611;29;20499;-76
2023/12/14 06:20:03;;;;;;;32.43;14.60;;;8.40;83.80;;;;;;4897582;29;20468;-76
2023/12/14 06:22:32;;;;;;;24.40;13.83;;;8.40;83.80;;;;;;4891748;29;20476;-76
2023/12/14 06:25:01;;;;;;;21.83;12.33;;;8.30;83.90;;;;;;4891574;29;20818;-76
2023/12/14 06:27:29;;;;;;;22.07;13.17;;;8.40;83.80;;;;;;4889920;29;20462;-76
2023/12/14 06:29:57;;;;;;;25.90;12.90;;;8.30;83.90;;;;;;4892664;29;20464;-76
2023/12/14 06:32:25;;;;;;;24.27;14.00;;;8.30;83.80;;;;;;4895548;29;20489;-76
2023/12/14 06:34:54;;;;;;;29.57;15.23;;;8.30;83.80;;;;;;4897777;29;20462;-76
2023/12/14 06:37:22;;;;;;;28.73;13.70;;;8.20;83.80;;;;;;4893251;29;20492;-76
2023/12/14 06:39:50;;;;;;;23.60;12.63;;;8.20;84.00;;;;;;4892307;29;20464;-76
2023/12/14 06:42:18;;;;;;;23.03;13.37;;;8.20;83.90;;;;;;4891096;29;20465;-76
2023/12/14 06:44:46;;;;;;;23.90;11.93;;;8.20;83.90;;;;;;4890005;29;20469;-76
2023/12/14 06:47:14;;;;;;;20.73;11.70;;;8.20;83.90;;;;;;4891462;29;20497;-76
2023/12/14 06:49:42;;;;;;;22.13;13.57;;;8.10;83.90;;;;;;4894309;29;20830;-76
2023/12/14 06:52:11;;;;;;;22.00;12.73;;;8.10;84.00;;;;;;4889243;29;20458;-76
2023/12/14 06:54:39;;;;;;;27.83;12.37;;;8.10;84.00;;;;;;4887017;29;20837;-76
2023/12/14 06:57:07;;;;;;;19.77;12.20;;;8.10;84.00;;;;;;4889002;29;20486;-76
2023/12/14 06:59:35;;;;;;;24.83;12.60;;;8.10;84.00;;;;;;4890988;29;20461;-75
2023/12/14 07:02:03;;;;;;;19.83;11.07;;;8.10;83.90;;;;;;4888784;29;20482;-76
2023/12/14 07:04:31;;;;;;;22.17;12.70;;;8.10;83.90;;;;;;4889179;29;20198;-76
2023/12/14 07:07:00;;;;;;;18.97;11.50;;;8.10;83.90;;;;;;4891035;29;20466;-76
2023/12/14 07:09:29;;;;;;;22.60;12.60;;;8.10;83.90;;;;;;4891240;29;20553;-76
2023/12/14 07:11:57;;;;;;;20.47;12.37;;;8.10;84.00;;;;;;4889888;29;20879;-76
2023/12/14 07:14:25;;;;;;;23.50;11.03;;;8.10;83.90;;;;;;4888203;29;20467;-76
2023/12/14 07:16:53;;;;;;;20.40;11.83;;;8.10;83.90;;;;;;4894431;29;20482;-76
2023/12/14 07:19:21;;;;;;;25.73;12.80;;;8.10;83.90;;;;;;4889074;29;20465;-77
2023/12/14 07:21:49;;;;;;;21.70;12.90;;;8.00;83.90;;;;;;4894662;29;20985;-76
2023/12/14 07:24:17;;;;;;;24.17;12.70;;;8.00;84.00;;;;;;4891278;29;20916;-76
2023/12/14 07:26:48;;;;;;;22.73;12.40;;;8.10;84.10;;;;;;4891495;29;20458;-76
2023/12/14 07:29:16;;;;;;;21.60;12.87;;;8.10;84.10;;;;;;4890228;29;20457;-75
2023/12/14 07:31:44;;;;;;;25.47;12.73;;;8.10;84.10;;;;;;4890657;29;20489;-76
2023/12/14 07:34:12;;;;;;;31.67;16.13;;;8.10;84.20;;;;;;4887051;29;20534;-75
2023/12/14 07:36:40;;;;;;;27.50;15.80;;;8.10;84.20;;;;;;4892592;29;20446;-75
2023/12/14 07:39:09;;;;;;;28.03;15.53;;;8.10;84.30;;;;;;4891910;29;20542;-76
2023/12/14 07:41:36;;;;;;;30.10;14.50;;;8.20;84.40;;;;;;4895120;29;20870;-76
2023/12/14 07:44:06;;;;;;;26.03;14.40;;;8.20;84.40;;;;;;4891331;29;20469;-75
2023/12/14 07:46:34;;;;;;;31.07;16.60;;;8.20;84.30;;;;;;4891396;29;20473;-76
2023/12/14 07:49:03;;;;;;;29.63;15.30;;;8.20;84.40;;;;;;4892859;29;20469;-75
2023/12/14 07:51:31;;;;;;;25.30;15.57;;;8.20;84.50;;;;;;4894100;29;20469;-76
2023/12/14 07:53:59;;;;;;;26.57;16.20;;;8.20;84.50;;;;;;4887903;29;20932;-75
2023/12/14 07:56:27;;;;;;;32.20;14.97;;;8.20;84.60;;;;;;4893065;29;20484;-75
2023/12/14 07:58:55;;;;;;;33.83;17.73;;;8.30;84.70;;;;;;4890460;29;20580;-75
2023/12/14 08:01:25;;;;;;;26.17;16.03;;;8.30;84.70;;;;;;4905678;29;21260;-75
2023/12/14 08:03:53;;;;;;;28.80;16.30;;;8.30;84.70;;;;;;4892102;29;20458;-75
2023/12/14 08:06:21;;;;;;;28.43;15.83;;;8.40;84.70;;;;;;4883270;29;20465;-75
2023/12/14 08:08:49;;;;;;;28.60;15.97;;;8.40;84.70;;;;;;4890501;29;20843;-76
2023/12/14 08:11:17;;;;;;;22.13;14.40;;;8.40;84.60;;;;;;4892008;29;20471;-75
2023/12/14 08:13:45;;;;;;;30.97;15.93;;;8.50;84.60;;;;;;4891900;29;21189;-75
2023/12/14 08:16:13;;;;;;;26.63;15.30;;;8.50;84.60;;;;;;4891501;29;20927;-75
2023/12/14 08:18:44;;;;;;;33.20;14.33;;;8.50;84.70;;;;;;4890689;29;20497;-76
2023/12/14 08:21:12;;;;;;;24.37;12.60;;;8.50;84.60;;;;;;4892667;29;20469;-76
2023/12/14 08:23:40;;;;;;;24.30;13.10;;;8.50;84.70;;;;;;4892858;29;20466;-75
2023/12/14 08:26:10;;;;;;;19.97;12.23;;;8.50;84.90;;;;;;4891593;29;20572;-75
2023/12/14 08:28:38;;;;;;;27.87;12.40;;;8.50;85.00;;;;;;4890057;29;20590;-75
2023/12/14 08:31:06;;;;;;;26.23;12.30;;;8.50;84.90;;;;;;4889992;29;20474;-75
2023/12/14 08:33:34;;;;;;;19.93;12.07;;;8.50;85.00;;;;;;4891939;29;20564;-76
2023/12/14 08:36:05;;;;;;;22.07;12.50;;;8.50;85.10;;;;;;4893657;29;20529;-75
2023/12/14 08:38:33;;;;;;;20.37;11.83;;;8.60;85.00;;;;;;4892567;29;20492;-75
2023/12/14 08:41:01;;;;;;;27.37;13.33;;;8.60;85.00;;;;;;4891483;29;20547;-75
2023/12/14 08:43:29;;;;;;;20.40;12.40;;;8.60;85.10;;;;;;4889195;29;20533;-75
2023/12/14 08:45:57;;;;;;;18.73;11.13;;;8.60;85.10;;;;;;4890546;29;20911;-75
2023/12/14 08:48:25;;;;;;;26.37;13.20;;;8.70;85.10;;;;;;4890769;29;20464;-75
2023/12/14 08:50:55;;;;;;;22.00;11.87;;;8.70;85.20;;;;;;4893153;29;20509;-76
2023/12/14 08:53:24;;;;;;;20.13;12.27;;;8.70;85.20;;;;;;4890863;29;20464;-76
2023/12/14 08:55:52;;;;;;;18.57;10.90;;;8.70;85.20;;;;;;4886239;29;20458;-75
2023/12/14 08:58:20;;;;;;;26.43;14.10;;;8.80;85.20;;;;;;4890600;29;20486;-75
2023/12/14 09:00:52;;;;;;;23.30;13.10;;;8.80;85.10;;;;;;4906286;29;20520;-76
2023/12/14 09:03:20;;;;;;;23.37;14.33;;;8.70;85.20;;;;;;4906373;29;20476;-75
2023/12/14 09:05:49;;;;;;;23.80;14.13;;;8.70;85.20;;;;;;4893306;29;20450;-75
2023/12/14 09:08:19;;;;;;;29.57;15.40;;;8.70;85.30;;;;;;4894036;29;20529;-75
2023/12/14 09:10:48;;;;;;;20.43;12.70;;;8.70;85.40;;;;;;4892017;29;20498;-75
2023/12/14 09:13:16;;;;;;;26.60;15.60;;;8.80;85.40;;;;;;4892400;29;20488;-75
2023/12/14 09:15:44;;;;;;;26.83;13.57;;;8.80;85.40;;;;;;4890899;29;20458;-75
2023/12/14 09:18:12;;;;;;;22.23;13.30;;;8.80;85.40;;;;;;4905051;29;20513;-75
2023/12/14 09:20:42;;;;;;;19.60;13.33;;;8.80;85.40;;;;;;4890778;29;20464;-75
2023/12/14 09:23:10;;;;;;;23.80;14.80;;;8.90;85.40;;;;;;4892604;29;21158;-75
2023/12/14 09:25:38;;;;;;;26.20;13.83;;;8.90;85.40;;;;;;4906740;29;20548;-75
2023/12/14 09:28:07;;;;;;;22.97;14.07;;;8.90;85.40;;;;;;4891594;29;20458;-76
2023/12/14 09:30:36;;;;;;;23.77;13.37;;;8.90;85.40;;;;;;4890279;29;20819;-75
2023/12/14 09:33:04;;;;;;;25.00;13.70;;;8.90;85.40;;;;;;4898661;29;20465;-75
2023/12/14 09:35:32;;;;;;;23.90;13.53;;;9.00;85.30;;;;;;4906154;29;20565;-76
2023/12/14 09:38:00;;;;;;;22.33;13.23;;;9.00;85.40;;;;;;4894911;29;20476;-75
2023/12/14 09:40:29;;;;;;;23.83;12.80;;;9.00;85.40;;;;;;4896119;29;20923;-76
2023/12/14 09:42:57;;;;;;;21.20;13.40;;;9.00;85.30;;;;;;4888697;29;20485;-75
2023/12/14 09:45:29;;;;;;;27.50;14.17;;;9.00;85.30;;;;;;4890204;29;20482;-75
2023/12/14 09:47:58;;;;;;;21.97;11.93;;;9.00;85.30;;;;;;4906242;29;20560;-76
2023/12/14 09:50:27;;;;;;;19.30;10.87;;;9.00;85.30;;;;;;4896263;29;20509;-76
2023/12/14 09:52:55;;;;;;;27.27;12.37;;;9.00;85.40;;;;;;4891522;29;20466;-75
2023/12/14 09:55:23;;;;;;;22.70;11.70;;;9.00;85.30;;;;;;4895121;29;21121;-75
2023/12/14 09:57:51;;;;;;;18.87;11.90;;;9.00;85.30;;;;;;4890956;29;20489;-75
2023/12/14 10:00:36;;;;;;;22.40;11.27;;;9.00;85.20;;;;;;4888644;29;20497;-75
2023/12/14 10:03:21;;;;;;;18.30;11.30;;;9.00;85.40;;;;;;4891917;29;20924;-75
2023/12/14 10:05:49;;;;;;;23.97;12.60;;;9.00;85.30;;;;;;4893982;29;20476;-75
2023/12/14 10:08:18;;;;;;;21.20;12.40;;;9.00;85.40;;;;;;4895297;29;20821;-75
2023/12/14 10:10:48;;;;;;;19.10;10.90;;;9.00;85.30;;;;;;4893951;29;20933;-75
2023/12/14 10:13:17;;;;;;;20.90;12.43;;;9.00;85.30;;;;;;4895125;29;20529;-75
2023/12/14 10:15:50;;;;;;;21.40;12.77;;;9.00;85.50;;;;;;4894363;29;20795;-75
2023/12/14 10:18:24;;;;;;;21.20;11.20;;;9.10;85.50;;;;;;4909187;29;20556;-74
2023/12/14 10:20:53;;;;;;;20.67;13.00;;;9.10;85.50;;;;;;4894788;29;20553;-75
2023/12/14 10:23:21;;;;;;;21.80;13.53;;;9.10;85.30;;;;;;4891581;29;20462;-75
2023/12/14 10:25:49;;;;;;;21.03;13.20;;;9.10;85.30;;;;;;4892501;29;20485;-75
2023/12/14 10:28:18;;;;;;;27.43;13.00;;;9.00;85.50;;;;;;4892798;29;20477;-75
2023/12/14 10:30:46;;;;;;;22.30;14.10;;;9.00;85.50;;;;;;4885116;29;20478;-75
2023/12/14 10:33:16;;;;;;;30.30;14.60;;;9.00;85.50;;;;;;4889828;29;20775;-75
2023/12/14 10:35:46;;;;;;;27.73;15.00;;;9.00;85.70;;;;;;4894385;29;20950;-75
2023/12/14 10:38:17;;;;;;;31.37;16.07;;;9.00;85.70;;;;;;4892248;29;20453;-75
2023/12/14 10:40:47;;;;;;;24.80;14.87;;;9.00;85.70;;;;;;4902702;29;20528;-75
2023/12/14 10:43:17;;;;;;;31.13;16.00;;;9.00;85.80;;;;;;4888778;29;20501;-75
2023/12/14 10:46:08;;;;;;;33.50;17.20;;;9.00;85.80;;;;;;4894322;29;20482;-75
2023/12/14 10:48:37;;;;;;;26.47;16.97;;;9.00;85.90;;;;;;4894790;29;20473;-75
2023/12/14 10:51:08;;;;;;;28.90;17.23;;;9.00;85.90;;;;;;4894190;29;20462;-75
2023/12/14 10:53:36;;;;;;;34.93;16.20;;;9.10;85.80;;;;;;4899316;29;20514;-75
2023/12/14 10:56:09;;;;;;;29.90;18.00;;;9.10;85.80;;;;;;4889372;29;21282;-75
2023/12/14 10:58:48;;;;;;;28.00;17.67;;;9.10;85.80;;;;;;4891717;29;20948;-75
2023/12/14 11:01:17;;;;;;;34.27;17.53;;;9.10;85.80;;;;;;4892071;29;20587;-75
2023/12/14 11:03:47;;;;;;;36.07;19.30;;;9.10;85.80;;;;;;4890679;29;20462;-75
2023/12/14 11:06:29;;;;;;;37.63;21.13;;;9.10;85.80;;;;;;4891015;29;20475;-75
2023/12/14 11:08:59;;;;;;;32.10;19.50;;;9.00;85.80;;;;;;4891365;29;20549;-76
2023/12/14 11:11:30;;;;;;;36.70;18.97;;;9.00;85.90;;;;;;4894588;29;20500;-75
2023/12/14 11:13:58;;;;;;;36.10;19.60;;;9.00;86.00;;;;;;4892139;29;20494;-75
2023/12/14 11:16:29;;;;;;;33.47;19.47;;;9.10;86.00;;;;;;4889306;29;20963;-75
2023/12/14 11:19:27;;;;;;;37.77;18.33;;;9.10;86.00;;;;;;4887463;29;20453;-75
2023/12/14 11:22:27;;;;;;;35.93;19.40;;;9.10;86.00;;;;;;4893579;29;20468;-75
2023/12/14 11:24:56;;;;;;;33.90;18.33;;;9.10;86.00;;;;;;4890119;29;20446;-75
2023/12/14 11:27:29;;;;;;;36.33;19.47;;;9.10;86.00;;;;;;4893430;29;20547;-75
2023/12/14 11:29:58;;;;;;;34.73;18.90;;;9.20;86.00;;;;;;4893717;29;20461;-75
2023/12/14 11:32:27;;;;;;;30.50;17.20;;;9.20;85.90;;;;;;4885753;29;20856;-75
2023/12/14 11:34:57;;;;;;;27.50;17.23;;;9.20;85.90;;;;;;4897581;29;20962;-75
2023/12/14 11:37:27;;;;;;;30.53;15.50;;;9.20;86.00;;;;;;4891574;29;20504;-75
2023/12/14 11:39:55;;;;;;;28.37;17.17;;;9.20;86.00;;;;;;4889361;29;20987;-75
2023/12/14 11:42:25;;;;;;;30.50;17.10;;;9.20;86.00;;;;;;4890899;29;21227;-75
2023/12/14 11:44:53;;;;;;;27.40;15.30;;;9.20;86.00;;;;;;4892916;29;20476;-75
2023/12/14 11:47:21;;;;;;;26.43;16.20;;;9.10;86.00;;;;;;4908814;29;20466;-75
2023/12/14 11:49:49;;;;;;;28.87;15.50;;;9.20;86.00;;;;;;4890676;29;20462;-75
2023/12/14 11:52:19;;;;;;;30.03;16.37;;;9.20;86.00;;;;;;4889529;29;20466;-75
2023/12/14 11:54:48;;;;;;;22.63;14.50;;;9.10;86.00;;;;;;4889434;29;20509;-75
2023/12/14 11:57:17;;;;;;;27.07;13.43;;;9.10;86.00;;;;;;4890086;29;20466;-75
2023/12/14 11:59:46;;;;;;;24.20;13.57;;;9.10;86.10;;;;;;4885544;29;20554;-75
2023/12/14 12:02:25;;;;;;;24.00;13.67;;;9.10;86.00;;;;;;4892070;29;20485;-75
2023/12/14 12:04:53;;;;;;;25.10;14.20;;;9.10;86.20;;;;;;4889572;29;20466;-75
2023/12/14 12:07:23;;;;;;;26.00;14.17;;;9.10;86.20;;;;;;4890896;29;20462;-75
2023/12/14 12:09:51;;;;;;;26.43;14.90;;;9.10;86.20;;;;;;4889918;29;20494;-75
2023/12/14 12:12:19;;;;;;;22.70;12.90;;;9.10;86.20;;;;;;4887956;29;20460;-75
2023/12/14 12:14:49;;;;;;;23.33;12.93;;;9.10;86.20;;;;;;4888292;29;20957;-75
2023/12/14 12:17:19;;;;;;;21.60;12.67;;;9.10;86.30;;;;;;4893571;29;20573;-75
2023/12/14 12:19:47;;;;;;;21.50;12.87;;;9.10;86.30;;;;;;4886712;29;20569;-75
2023/12/14 12:22:15;;;;;;;21.10;13.23;;;9.10;86.20;;;;;;4893065;29;20461;-75
2023/12/14 12:24:44;;;;;;;23.90;12.80;;;9.20;86.20;;;;;;4890602;29;20465;-75
2023/12/14 12:27:13;;;;;;;17.30;10.00;;;9.10;86.20;;;;;;4891217;29;20473;-75
2023/12/14 12:29:41;;;;;;;16.33;9.83;;;9.10;86.20;;;;;;4892587;29;20468;-75
2023/12/14 12:32:09;;;;;;;14.23;8.70;;;9.10;86.20;;;;;;4891813;29;21011;-75
2023/12/14 12:34:37;;;;;;;13.93;8.93;;;9.00;86.20;;;;;;4908195;29;20466;-75
2023/12/14 12:37:06;;;;;;;21.53;9.10;;;9.00;86.30;;;;;;4890083;29;20833;-75
2023/12/14 12:39:35;;;;;;;17.33;9.40;;;9.00;86.20;;;;;;4891308;29;20545;-75
2023/12/14 12:42:04;;;;;;;17.80;9.57;;;9.00;86.40;;;;;;4893120;29;20792;-75
2023/12/14 12:44:32;;;;;;;11.20;7.50;;;9.00;86.50;;;;;;4889462;29;20462;-76
2023/12/14 12:47:00;;;;;;;13.80;8.33;;;9.10;86.40;;;;;;4891773;29;20500;-75
2023/12/14 12:49:38;;;;;;;13.70;8.27;;;9.10;86.40;;;;;;4891109;29;20552;-75